createdAt,value
2022-12-08T00:01:08.613Z,1.68
2022-12-08T00:05:19.845Z,1.74
2022-12-08T00:09:24.092Z,1.70
2022-12-08T00:13:16.722Z,1.57
2022-12-08T00:17:11.569Z,1.60
2022-12-08T00:21:04.622Z,1.46
2022-12-08T00:24:57.381Z,1.47
2022-12-08T00:28:50.135Z,1.47
2022-12-08T00:32:42.848Z,1.49
2022-12-08T00:36:35.591Z,1.46
2022-12-08T00:40:28.629Z,1.47
2022-12-08T00:44:21.239Z,1.62
2022-12-08T00:48:13.771Z,1.66
2022-12-08T00:52:06.455Z,1.70
2022-12-08T00:55:59.273Z,1.70
2022-12-08T00:59:51.691Z,1.71
2022-12-08T01:03:45.100Z,1.64
2022-12-08T01:07:37.947Z,1.62
2022-12-08T01:11:30.628Z,1.70
2022-12-08T01:15:23.397Z,1.81
2022-12-08T01:19:17.534Z,2.04
2022-12-08T01:23:10.129Z,2.04
2022-12-08T01:27:02.681Z,1.88
2022-12-08T01:30:55.307Z,1.93
2022-12-08T01:34:47.869Z,2.22
2022-12-08T01:38:40.425Z,2.10
2022-12-08T01:42:34.847Z,2.01
2022-12-08T01:46:29.328Z,1.81
2022-12-08T01:50:24.058Z,1.88
2022-12-08T01:54:17.241Z,1.71
2022-12-08T01:58:26.000Z,1.68
2022-12-08T02:02:18.650Z,1.63
2022-12-08T02:06:11.822Z,1.98
2022-12-08T02:10:05.751Z,2.04
2022-12-08T02:14:01.510Z,2.08
2022-12-08T02:18:31.651Z,2.07
2022-12-08T02:22:40.067Z,1.87
2022-12-08T02:26:38.587Z,2.07
2022-12-08T02:30:49.794Z,1.91
2022-12-08T02:34:57.722Z,1.87
2022-12-08T02:38:59.058Z,1.88
2022-12-08T02:43:03.836Z,1.76
2022-12-08T02:47:09.011Z,1.64
2022-12-08T02:51:01.581Z,1.63
2022-12-08T02:54:58.988Z,1.97
2022-12-08T02:59:13.147Z,1.84
2022-12-08T03:03:36.327Z,1.93
2022-12-08T03:07:38.999Z,2.01
2022-12-08T03:11:38.616Z,1.97
2022-12-08T03:15:32.258Z,1.83
2022-12-08T03:19:28.819Z,1.71
2022-12-08T03:23:22.986Z,1.74
2022-12-08T03:27:22.071Z,1.50
2022-12-08T03:31:17.977Z,1.38
2022-12-08T03:35:14.539Z,1.35
2022-12-08T03:39:07.129Z,1.36
2022-12-08T03:43:00.221Z,1.49
2022-12-08T03:46:52.695Z,1.08
2022-12-08T03:50:45.119Z,1.18
2022-12-08T03:54:37.859Z,1.31
2022-12-08T03:58:35.798Z,1.09
2022-12-08T04:02:30.145Z,1.11
2022-12-08T04:06:23.063Z,1.19
2022-12-08T04:10:15.657Z,1.11
2022-12-08T04:14:08.461Z,1.11
2022-12-08T04:18:00.958Z,1.24
2022-12-08T04:21:53.904Z,1.17
2022-12-08T04:25:46.580Z,1.15
2022-12-08T04:29:39.398Z,1.04
2022-12-08T04:33:32.187Z,1.09
2022-12-08T04:37:24.744Z,1.22
2022-12-08T04:41:17.607Z,1.21
2022-12-08T04:45:10.520Z,1.17
2022-12-08T04:49:03.199Z,1.18
2022-12-08T04:52:55.929Z,1.15
2022-12-08T04:56:48.384Z,1.27
2022-12-08T05:00:42.059Z,1.50
2022-12-08T05:04:34.700Z,1.62
2022-12-08T05:08:27.599Z,1.68
2022-12-08T05:12:20.239Z,1.43
2022-12-08T05:16:15.443Z,1.38
2022-12-08T05:20:08.808Z,1.55
2022-12-08T05:24:01.624Z,1.49
2022-12-08T05:28:06.124Z,1.59
2022-12-08T05:32:04.561Z,1.55
2022-12-08T05:35:57.262Z,1.28
2022-12-08T05:39:49.910Z,1.60
2022-12-08T05:43:42.581Z,1.52
2022-12-08T05:47:36.298Z,1.60
2022-12-08T05:51:29.526Z,1.52
2022-12-08T05:55:22.396Z,1.24
2022-12-08T05:59:15.122Z,1.29
2022-12-08T06:03:07.786Z,1.19
2022-12-08T06:07:00.561Z,1.08
2022-12-08T06:10:53.136Z,1.21
2022-12-08T06:14:46.137Z,1.24
2022-12-08T06:18:38.780Z,1.28
2022-12-08T06:22:31.548Z,1.53
2022-12-08T06:26:24.620Z,1.55
2022-12-08T06:30:18.357Z,1.39
2022-12-08T06:34:11.066Z,1.59
2022-12-08T06:38:03.692Z,1.77
2022-12-08T06:42:15.259Z,1.70
2022-12-08T06:46:10.823Z,1.59
2022-12-08T06:50:04.627Z,1.73
2022-12-08T06:53:57.430Z,1.87
2022-12-08T06:57:52.248Z,1.84
2022-12-08T07:01:47.351Z,1.74
2022-12-08T07:05:40.352Z,1.60
2022-12-08T07:09:33.057Z,1.77
2022-12-08T07:13:25.702Z,1.83
2022-12-08T07:17:18.417Z,1.87
2022-12-08T07:21:13.342Z,1.97
2022-12-08T07:25:06.427Z,1.64
2022-12-08T07:29:00.676Z,1.91
2022-12-08T07:32:53.526Z,1.91
2022-12-08T07:36:46.146Z,1.87
2022-12-08T07:40:39.420Z,1.73
2022-12-08T07:44:32.105Z,1.83
2022-12-08T07:48:24.837Z,1.98
2022-12-08T07:52:17.354Z,2.01
2022-12-08T07:56:11.520Z,1.97
2022-12-08T08:00:06.200Z,2.08
2022-12-08T08:04:04.955Z,2.26
2022-12-08T08:07:57.698Z,2.35
2022-12-08T08:12:14.298Z,2.33
2022-12-08T08:16:07.859Z,2.59
2022-12-08T08:20:00.894Z,2.56
2022-12-08T08:23:53.464Z,2.49
2022-12-08T08:27:46.879Z,2.46
2022-12-08T08:31:39.603Z,2.64
2022-12-08T08:35:32.364Z,2.88
2022-12-08T08:39:24.847Z,2.87
2022-12-08T08:43:34.286Z,2.97
2022-12-08T08:47:30.443Z,2.83
2022-12-08T08:51:23.195Z,2.87
2022-12-08T08:55:16.573Z,3.11
2022-12-08T08:59:10.220Z,3.09
2022-12-08T09:03:03.286Z,3.00
2022-12-08T09:06:55.988Z,3.24
2022-12-08T09:10:48.704Z,3.05
2022-12-08T09:14:41.957Z,3.22
2022-12-08T09:18:35.464Z,3.09
2022-12-08T09:22:27.932Z,3.36
2022-12-08T09:26:23.800Z,3.22
2022-12-08T09:30:17.037Z,3.39
2022-12-08T09:34:11.902Z,3.40
2022-12-08T09:38:04.611Z,3.38
2022-12-08T09:42:03.222Z,3.56
2022-12-08T09:45:56.525Z,3.39
2022-12-08T09:50:00.083Z,3.40
2022-12-08T09:53:58.489Z,3.67
2022-12-08T09:58:00.432Z,3.52
2022-12-08T10:01:53.257Z,3.62
2022-12-08T10:05:54.766Z,3.72
2022-12-08T10:10:11.643Z,3.81
2022-12-08T10:14:15.019Z,3.83
2022-12-08T10:18:15.580Z,4.02
2022-12-08T10:22:19.426Z,3.91
2022-12-08T10:26:18.143Z,3.93
2022-12-08T10:30:16.995Z,4.05
2022-12-08T10:34:27.553Z,4.12
2022-12-08T10:38:29.474Z,4.12
2022-12-08T10:42:22.749Z,4.31
2022-12-08T10:46:26.027Z,4.05
2022-12-08T10:50:24.010Z,4.15
2022-12-08T10:54:34.367Z,4.14
2022-12-08T10:58:29.712Z,4.31
2022-12-08T11:02:23.150Z,4.24
2022-12-08T11:06:29.497Z,4.45
2022-12-08T11:10:32.506Z,4.52
2022-12-08T11:14:30.940Z,4.55
2022-12-08T11:18:39.550Z,4.49
2022-12-08T11:22:35.510Z,4.42
2022-12-08T11:26:35.495Z,4.27
2022-12-08T11:30:34.539Z,4.42
2022-12-08T11:34:29.877Z,4.67
2022-12-08T11:38:24.794Z,4.62
2022-12-08T11:42:22.781Z,4.69
2022-12-08T11:46:23.833Z,4.79
2022-12-08T11:50:48.569Z,4.90
2022-12-08T11:55:26.135Z,4.93
2022-12-08T11:59:21.535Z,4.93
2022-12-08T12:03:36.733Z,4.88
2022-12-08T12:07:52.049Z,4.67
2022-12-08T12:12:16.940Z,4.66
2022-12-08T12:16:32.505Z,4.77
2022-12-08T12:20:30.959Z,4.83
2022-12-08T12:24:35.554Z,4.81
2022-12-08T12:28:40.342Z,4.70
2022-12-08T12:32:52.269Z,4.79
2022-12-08T12:36:52.640Z,4.65
2022-12-08T12:40:45.316Z,4.67
2022-12-08T12:44:40.128Z,4.73
2022-12-08T12:48:32.975Z,4.56
2022-12-08T12:52:31.563Z,4.41
2022-12-08T12:56:47.362Z,4.50
2022-12-08T13:00:40.131Z,4.53
2022-12-08T13:04:37.755Z,4.65
2022-12-08T13:08:31.707Z,4.46
2022-12-08T13:12:25.481Z,4.48
2022-12-08T13:16:24.374Z,4.42
2022-12-08T13:20:23.928Z,4.63
2022-12-08T13:24:25.978Z,4.44
2022-12-08T13:28:23.341Z,4.57
2022-12-08T13:33:09.419Z,4.63
2022-12-08T13:37:16.209Z,4.46
2022-12-08T13:41:19.149Z,4.53
2022-12-08T13:45:27.874Z,4.50
2022-12-08T13:55:00.676Z,4.60
2022-12-08T13:58:31.679Z,4.52
2022-12-08T14:02:33.315Z,4.55
2022-12-08T14:06:35.114Z,4.42
2022-12-08T14:10:32.315Z,4.53
2022-12-08T14:14:54.293Z,4.62
2022-12-08T14:18:43.373Z,4.59
2022-12-08T14:22:39.067Z,4.55
2022-12-08T14:26:35.580Z,4.35
2022-12-08T14:30:30.853Z,4.18
2022-12-08T14:34:23.569Z,4.37
2022-12-08T14:38:18.228Z,4.38
2022-12-08T14:42:28.692Z,4.08
2022-12-08T14:46:23.230Z,4.15
2022-12-08T14:50:39.955Z,4.05
2022-12-08T14:54:32.510Z,3.98
2022-12-08T14:58:29.762Z,3.87
2022-12-08T15:02:31.662Z,3.94
2022-12-08T15:06:24.447Z,3.98
2022-12-08T15:10:17.070Z,4.05
2022-12-08T15:14:28.986Z,4.01
2022-12-08T15:18:36.884Z,3.84
2022-12-08T15:22:31.543Z,4.07
2022-12-08T15:26:28.416Z,4.05
2022-12-08T15:30:21.034Z,3.94
2022-12-08T15:34:13.712Z,3.98
2022-12-08T15:38:07.201Z,3.98
2022-12-08T15:42:00.439Z,4.14
2022-12-08T15:45:59.566Z,4.04
2022-12-08T15:49:53.334Z,4.00
2022-12-08T15:53:45.848Z,4.07
2022-12-08T15:58:45.034Z,3.98
2022-12-08T16:01:52.796Z,4.05
2022-12-08T16:06:01.719Z,3.98
2022-12-08T16:09:59.063Z,4.00
2022-12-08T16:14:15.578Z,3.97
2022-12-08T16:18:05.404Z,3.98
2022-12-08T16:22:45.010Z,3.91
2022-12-08T16:26:35.645Z,3.89
2022-12-08T16:30:28.766Z,4.21
2022-12-08T16:34:21.394Z,4.08
2022-12-08T16:38:16.116Z,4.01
2022-12-08T16:42:33.621Z,4.14
2022-12-08T16:46:28.702Z,4.11
2022-12-08T16:50:25.061Z,4.00
2022-12-08T16:54:17.736Z,4.10
2022-12-08T16:58:10.800Z,4.02
2022-12-08T17:02:03.941Z,4.21
2022-12-08T17:05:56.982Z,4.25
2022-12-08T17:09:50.802Z,4.21
2022-12-08T17:13:43.472Z,4.18
2022-12-08T17:17:37.048Z,4.21
2022-12-08T17:21:30.041Z,4.11
2022-12-08T17:25:22.844Z,4.14
2022-12-08T17:29:15.627Z,4.01
2022-12-08T17:33:08.789Z,3.98
2022-12-08T17:37:01.841Z,4.02
2022-12-08T17:40:58.560Z,3.90
2022-12-08T17:44:51.508Z,3.83
2022-12-08T17:48:44.934Z,3.95
2022-12-08T17:52:37.712Z,3.74
2022-12-08T17:56:30.445Z,3.79
2022-12-08T18:00:23.507Z,3.72
2022-12-08T18:04:16.065Z,3.67
2022-12-08T18:08:13.089Z,3.72
2022-12-08T18:12:07.894Z,3.70
2022-12-08T18:16:00.857Z,3.73
2022-12-08T18:19:54.214Z,3.63
2022-12-08T18:23:49.623Z,3.69
2022-12-08T18:27:44.202Z,3.69
2022-12-08T18:31:37.224Z,3.79
2022-12-08T18:35:30.327Z,3.70
2022-12-08T18:39:29.449Z,3.73
2022-12-08T18:43:23.779Z,3.80
2022-12-08T18:47:16.726Z,3.73
2022-12-08T18:51:20.861Z,3.72
2022-12-08T18:55:14.552Z,3.59
2022-12-08T18:59:11.455Z,3.64
2022-12-08T19:03:04.572Z,3.67
2022-12-08T19:06:58.762Z,3.48
2022-12-08T19:10:52.278Z,3.63
2022-12-08T19:14:45.658Z,3.67
2022-12-08T19:18:39.626Z,3.67
2022-12-08T19:22:33.505Z,3.73
2022-12-08T19:26:29.885Z,3.73
2022-12-08T19:30:23.318Z,3.72
2022-12-08T19:34:16.974Z,3.86
2022-12-08T19:38:10.991Z,3.74
2022-12-08T19:42:31.032Z,3.74
2022-12-08T19:46:26.778Z,3.79
2022-12-08T19:50:42.190Z,3.72
2022-12-08T19:54:36.400Z,3.77
2022-12-08T19:58:30.125Z,3.83
2022-12-08T20:02:23.831Z,3.95
2022-12-08T20:06:18.864Z,3.95
2022-12-08T20:10:24.745Z,4.01
2022-12-08T20:14:19.445Z,3.95
2022-12-08T20:18:15.709Z,4.07
2022-12-08T20:22:10.346Z,4.01
2022-12-08T20:26:12.644Z,3.80
2022-12-08T20:30:16.505Z,3.74
2022-12-08T20:34:15.921Z,3.64
2022-12-08T20:38:08.913Z,3.90
2022-12-08T20:42:03.416Z,3.83
2022-12-08T20:45:56.459Z,3.83
2022-12-08T20:49:51.219Z,3.95
2022-12-08T20:53:44.782Z,3.83
2022-12-08T20:57:37.981Z,3.79
2022-12-08T21:01:31.577Z,3.73
2022-12-08T21:05:26.467Z,3.84
2022-12-08T21:09:19.327Z,3.91
2022-12-08T21:13:12.991Z,4.01
2022-12-08T21:17:05.737Z,3.98
2022-12-08T21:21:11.291Z,4.11
2022-12-08T21:25:04.155Z,3.90
2022-12-08T21:28:59.047Z,3.90
2022-12-08T21:32:52.222Z,3.98
2022-12-08T21:36:44.903Z,3.90
2022-12-08T21:40:37.704Z,3.93
2022-12-08T21:44:30.433Z,3.87
2022-12-08T21:48:22.961Z,4.14
2022-12-08T21:52:15.713Z,4.02
2022-12-08T21:56:09.871Z,4.01
2022-12-08T22:00:03.339Z,4.11
2022-12-08T22:03:57.583Z,4.10
2022-12-08T22:07:50.480Z,3.89
2022-12-08T22:11:43.566Z,4.00
2022-12-08T22:15:36.369Z,3.98
2022-12-08T22:19:30.673Z,3.97
2022-12-08T22:23:24.276Z,3.97
2022-12-08T22:27:17.352Z,4.02
2022-12-08T22:31:11.373Z,4.17
2022-12-08T22:35:04.339Z,3.91
2022-12-08T22:38:57.152Z,4.01
2022-12-08T22:42:49.988Z,3.91
2022-12-08T22:46:42.871Z,4.02
2022-12-08T22:50:35.659Z,4.21
2022-12-08T22:54:34.582Z,4.07
2022-12-08T22:58:29.014Z,3.87
2022-12-08T23:02:21.927Z,3.94
2022-12-08T23:06:14.769Z,3.89
2022-12-08T23:10:10.480Z,3.91
2022-12-08T23:14:03.846Z,3.84
2022-12-08T23:17:56.756Z,3.94
2022-12-08T23:21:49.395Z,3.93
2022-12-08T23:25:43.044Z,3.76
2022-12-08T23:29:35.709Z,3.76
2022-12-08T23:33:28.182Z,3.84
2022-12-08T23:37:20.880Z,3.81
2022-12-08T23:41:15.508Z,3.81
2022-12-08T23:45:08.954Z,4.01
2022-12-08T23:49:01.902Z,3.83
2022-12-08T23:52:54.399Z,3.83
2022-12-08T23:56:47.219Z,3.77
